Stanton Point, Illinois
Current Conditions -  °F | °C
As of 1:55 AM on Thursday 27 Nov 2014 (Local Time) from KUGN Reporting Station
Haze Haze  
Wind Chill:   Ceiling: Unl
Heat Index: 20°   Visibility: 6mi
Dew Point: 15°   Wind: 9mph
Humidity: 81%   Direction: 300°WNW
Pressure: 30.2"   Gusts: NA
Location:  42.367°N, 88.1557°W
Report Text: KUGN 270755Z AUTO 30008KT 6SM HZ FEW048 M07/M09 A3020 RMK AO2 SLP244 T10671094
Loading
Personal Weather Stations






























Interactive Weather Map New forecast layout! Learn more

10-Day Weather Forecast

Advertisements
Track Severe Weather on mobile